Time;durP1;ratioP1;P1;durP2;ratioP2;P2;SDS_P1;SDS_P2;PMS_P1;PMS_P2;Temp;Humidity;BMP_temperature;BMP_pressure;BME280_temperature;BME280_humidity;BME280_pressure;Samples;Min_cycle;Max_cycle;Signal;HPM_P1;HPM_P2
2023/01/14 00:00:21;;;;;;;9.63;2.35;;;4.50;98.00;;;;;;5010263;28;20034;-67
2023/01/14 00:02:46;;;;;;;9.85;2.00;;;4.60;98.00;;;;;;5010352;28;20099;-67
2023/01/14 00:05:12;;;;;;;9.95;1.98;;;4.60;98.00;;;;;;5013068;28;20423;-68
2023/01/14 00:07:38;;;;;;;9.02;2.15;;;4.40;98.00;;;;;;5011462;28;20029;-67
2023/01/14 00:10:03;;;;;;;13.88;2.50;;;4.50;98.00;;;;;;5013956;28;20451;-68
2023/01/14 00:12:29;;;;;;;10.50;2.85;;;4.50;98.00;;;;;;5013827;28;20040;-68
2023/01/14 00:14:55;;;;;;;10.95;2.00;;;4.50;98.00;;;;;;5014487;28;20037;-68
2023/01/14 00:17:24;;;;;;;8.23;1.80;;;4.60;98.00;;;;;;5007450;28;20025;-68
2023/01/14 00:19:49;;;;;;;10.43;1.90;;;4.60;98.00;;;;;;4990715;28;20056;-68
2023/01/14 00:22:15;;;;;;;10.65;2.28;;;4.60;98.00;;;;;;5009662;28;20419;-68
2023/01/14 00:24:41;;;;;;;12.43;1.88;;;4.60;98.00;;;;;;5012449;28;20316;-69
2023/01/14 00:27:07;;;;;;;10.27;2.10;;;4.70;98.00;;;;;;5013401;28;20105;-68
2023/01/14 00:29:34;;;;;;;10.80;2.33;;;4.60;98.00;;;;;;5008851;28;20026;-68
2023/01/14 00:32:04;;;;;;;12.85;2.30;;;4.60;98.00;;;;;;4987998;28;20335;-68
2023/01/14 00:34:31;;;;;;;8.90;2.08;;;4.60;98.00;;;;;;5008594;28;20144;-68
2023/01/14 00:36:58;;;;;;;7.55;2.10;;;4.60;98.00;;;;;;5014911;28;20122;-68
2023/01/14 00:39:24;;;;;;;9.90;2.00;;;4.80;98.00;;;;;;4986767;28;20439;-67
2023/01/14 00:41:50;;;;;;;8.75;2.10;;;4.80;98.00;;;;;;5015057;28;20545;-68
2023/01/14 00:44:17;;;;;;;8.77;2.00;;;4.90;98.00;;;;;;5015072;28;20033;-67
2023/01/14 00:46:42;;;;;;;10.98;3.40;;;4.90;98.00;;;;;;5020997;28;20025;-67
2023/01/14 00:49:15;;;;;;;9.07;2.05;;;4.90;98.00;;;;;;5016143;28;20036;-69
2023/01/14 00:51:43;;;;;;;11.45;2.42;;;4.90;98.00;;;;;;5016520;28;20044;-68
2023/01/14 00:54:09;;;;;;;9.80;2.50;;;4.90;98.00;;;;;;5018835;28;20040;-68
2023/01/14 00:56:35;;;;;;;9.13;2.40;;;4.80;98.00;;;;;;5015597;28;20034;-68
2023/01/14 00:59:00;;;;;;;8.13;1.80;;;4.80;98.00;;;;;;5014299;28;20062;-68
2023/01/14 01:01:26;;;;;;;8.48;2.35;;;4.90;98.00;;;;;;5015457;28;20068;-67
2023/01/14 01:03:54;;;;;;;7.40;2.10;;;4.90;98.00;;;;;;5016318;28;20045;-68
2023/01/14 01:06:22;;;;;;;5.10;1.45;;;4.90;98.00;;;;;;5013411;28;20068;-68
2023/01/14 01:08:49;;;;;;;6.45;1.75;;;4.90;98.00;;;;;;4996539;28;20026;-67
2023/01/14 01:11:18;;;;;;;9.00;1.85;;;4.90;98.00;;;;;;5014507;28;20046;-68
2023/01/14 01:13:44;;;;;;;5.55;1.60;;;4.90;98.00;;;;;;5014560;28;20153;-68
2023/01/14 01:16:15;;;;;;;8.68;1.85;;;4.90;98.00;;;;;;5015659;28;20045;-67
2023/01/14 01:18:42;;;;;;;7.15;1.80;;;5.00;98.00;;;;;;5015432;28;20022;-68
2023/01/14 01:21:11;;;;;;;5.88;1.58;;;5.00;98.00;;;;;;5014654;28;20435;-68
2023/01/14 01:23:41;;;;;;;6.07;1.65;;;5.00;98.00;;;;;;5015611;28;20037;-68
2023/01/14 01:26:09;;;;;;;6.10;1.38;;;5.00;98.00;;;;;;5019989;28;20025;-67
2023/01/14 01:28:35;;;;;;;7.78;1.58;;;5.00;98.00;;;;;;5014917;28;20064;-68
2023/01/14 01:31:10;;;;;;;8.75;1.95;;;5.00;98.00;;;;;;5015263;28;20053;-66
2023/01/14 01:33:35;;;;;;;6.85;1.50;;;4.90;98.00;;;;;;4998592;28;20034;-68
2023/01/14 01:36:03;;;;;;;5.93;1.77;;;4.90;98.00;;;;;;5017513;28;20048;-68
2023/01/14 01:38:30;;;;;;;6.47;1.40;;;4.90;98.00;;;;;;5019234;28;20473;-68
2023/01/14 01:40:56;;;;;;;5.53;1.83;;;4.90;98.00;;;;;;5002042;28;20129;-67
2023/01/14 01:43:24;;;;;;;4.35;1.30;;;4.90;98.00;;;;;;5019034;28;20018;-68
2023/01/14 01:45:51;;;;;;;5.72;1.73;;;4.90;98.00;;;;;;5018928;28;20054;-67
2023/01/14 01:48:20;;;;;;;8.38;1.65;;;4.90;98.00;;;;;;5019148;28;20033;-68
2023/01/14 01:50:49;;;;;;;8.73;2.28;;;4.80;98.00;;;;;;5018273;28;20092;-69
2023/01/14 01:53:16;;;;;;;10.90;2.80;;;4.70;98.00;;;;;;5018048;28;20392;-68
2023/01/14 01:55:46;;;;;;;10.15;1.77;;;4.70;98.00;;;;;;5019020;28;20038;-67
2023/01/14 01:58:12;;;;;;;8.98;1.90;;;4.60;98.00;;;;;;5023865;28;20331;-68
2023/01/14 02:00:37;;;;;;;7.22;2.08;;;4.50;98.00;;;;;;5021977;28;20018;-68
2023/01/14 02:03:10;;;;;;;10.70;2.08;;;4.40;98.00;;;;;;5017941;28;20117;-68
2023/01/14 02:05:36;;;;;;;12.55;2.55;;;4.40;98.00;;;;;;5025738;28;20034;-68
2023/01/14 02:08:02;;;;;;;13.55;3.83;;;4.40;98.00;;;;;;5013130;28;20326;-68
2023/01/14 02:10:46;;;;;;;16.88;2.50;;;4.40;98.00;;;;;;5020035;28;20153;-68
2023/01/14 02:13:40;;;;;;;19.95;7.78;;;4.30;98.00;;;;;;5018966;28;20029;-69
2023/01/14 02:16:26;;;;;;;9.75;2.28;;;4.30;98.00;;;;;;5013637;28;20038;-68
2023/01/14 02:19:10;;;;;;;9.68;2.65;;;4.30;98.00;;;;;;5017062;28;20033;-68
2023/01/14 02:21:47;;;;;;;12.32;2.58;;;4.20;98.00;;;;;;5014358;28;20030;-68
2023/01/14 02:24:19;;;;;;;9.88;2.13;;;4.10;98.00;;;;;;5006109;28;20061;-68
2023/01/14 02:27:04;;;;;;;9.15;2.45;;;4.10;98.00;;;;;;5017847;28;20390;-68
2023/01/14 02:29:32;;;;;;;8.65;2.17;;;4.10;98.00;;;;;;5000395;28;20148;-69
2023/01/14 02:32:03;;;;;;;9.70;2.03;;;4.00;98.00;;;;;;5018137;28;20088;-68
2023/01/14 02:34:50;;;;;;;8.10;1.85;;;4.00;98.00;;;;;;5020361;28;20072;-68
2023/01/14 02:37:27;;;;;;;7.55;1.88;;;4.00;98.00;;;;;;5017573;28;20658;-68
2023/01/14 02:40:07;;;;;;;12.82;2.50;;;3.90;98.00;;;;;;5021378;28;20032;-68
2023/01/14 02:45:42;;;;;;;12.50;2.58;;;3.70;98.00;;;;;;5014520;28;20376;-68
2023/01/14 02:48:08;;;;;;;10.27;2.72;;;3.60;98.00;;;;;;5017504;28;20027;-68
2023/01/14 02:50:35;;;;;;;10.55;2.47;;;3.80;98.00;;;;;;5016029;28;20037;-68
2023/01/14 02:53:14;;;;;;;11.77;2.80;;;3.80;98.00;;;;;;5014506;28;20419;-68
2023/01/14 02:55:40;;;;;;;11.93;2.50;;;3.70;98.00;;;;;;5016123;28;20130;-69
2023/01/14 02:58:30;;;;;;;9.05;2.28;;;3.50;98.00;;;;;;4997308;28;20385;-68
2023/01/14 03:01:14;;;;;;;6.70;1.80;;;3.50;98.00;;;;;;5013623;28;20414;-69
2023/01/14 03:04:00;;;;;;;12.75;3.47;;;3.50;98.00;;;;;;5019614;28;20415;-68
2023/01/14 03:06:30;;;;;;;13.60;2.30;;;3.40;98.00;;;;;;5014263;28;20101;-68
2023/01/14 03:09:04;;;;;;;12.43;2.22;;;3.40;98.00;;;;;;5011026;28;20038;-68
2023/01/14 03:11:39;;;;;;;;;;;3.30;98.00;;;;;;5017901;28;20278;-68
2023/01/14 03:14:14;;;;;;;10.20;1.85;;;3.30;98.00;;;;;;5017650;28;19907;-68
2023/01/14 03:16:44;;;;;;;11.05;2.97;;;3.50;98.00;;;;;;5026340;28;20395;-68
2023/01/14 03:19:23;;;;;;;8.35;1.80;;;3.50;98.00;;;;;;5025698;28;20104;-68
2023/01/14 03:21:54;;;;;;;7.78;2.15;;;3.40;98.00;;;;;;5016169;28;20026;-67
2023/01/14 03:24:31;;;;;;;10.68;2.08;;;3.40;98.00;;;;;;5016737;28;20033;-68
2023/01/14 03:27:02;;;;;;;13.10;2.30;;;3.50;98.00;;;;;;5013110;28;20030;-68
2023/01/14 03:29:34;;;;;;;7.05;1.95;;;3.40;98.00;;;;;;5014659;28;20026;-68
2023/01/14 03:32:12;;;;;;;9.80;1.95;;;3.50;98.00;;;;;;5017207;28;20033;-67
2023/01/14 03:34:44;;;;;;;10.73;2.25;;;3.60;98.00;;;;;;5015398;28;20026;-67
2023/01/14 03:37:12;;;;;;;9.82;2.10;;;3.70;98.00;;;;;;5013596;28;20041;-67
2023/01/14 03:39:44;;;;;;;9.63;2.75;;;3.70;98.00;;;;;;5020639;28;20022;-67
2023/01/14 03:42:19;;;;;;;10.95;1.98;;;3.80;98.00;;;;;;5013807;28;20029;-69
2023/01/14 03:44:51;;;;;;;8.57;1.98;;;3.80;98.00;;;;;;5014732;28;20033;-69
2023/01/14 03:47:17;;;;;;;10.68;2.08;;;3.90;98.00;;;;;;5014940;28;20078;-68
2023/01/14 03:49:43;;;;;;;8.27;2.10;;;4.00;98.00;;;;;;5013199;28;20362;-69
2023/01/14 03:52:20;;;;;;;8.82;2.30;;;4.20;98.00;;;;;;5015082;28;20060;-67
2023/01/14 03:54:59;;;;;;;9.73;1.83;;;4.30;98.00;;;;;;5016274;28;20042;-70
2023/01/14 03:57:32;;;;;;;8.90;1.90;;;4.40;98.00;;;;;;5009240;28;20026;-69
2023/01/14 04:00:10;;;;;;;9.35;2.10;;;4.40;98.00;;;;;;5012988;28;20041;-67
2023/01/14 04:02:36;;;;;;;14.02;2.70;;;4.50;98.00;;;;;;5010245;28;20103;-68
2023/01/14 04:05:02;;;;;;;9.60;2.00;;;4.50;98.00;;;;;;5020542;28;20037;-68
2023/01/14 04:07:28;;;;;;;12.18;2.70;;;4.60;98.00;;;;;;5022443;28;20026;-68
2023/01/14 04:09:53;;;;;;;10.57;2.45;;;4.60;98.00;;;;;;5015076;28;20176;-68
2023/01/14 04:12:19;;;;;;;10.68;2.78;;;4.60;98.00;;;;;;5015750;28;20030;-68
2023/01/14 04:17:29;;;;;;;9.88;1.73;;;4.70;98.00;;;;;;5009465;28;20052;-68
2023/01/14 04:19:54;;;;;;;9.60;2.08;;;4.60;98.00;;;;;;5015573;28;20785;-67
2023/01/14 04:22:20;;;;;;;11.52;2.72;;;4.60;98.00;;;;;;5017706;28;20025;-68
2023/01/14 04:24:45;;;;;;;15.13;2.22;;;4.50;98.00;;;;;;5016312;28;20157;-68
2023/01/14 04:27:11;;;;;;;10.38;2.20;;;4.30;98.00;;;;;;5015551;28;20026;-68
2023/01/14 04:29:40;;;;;;;7.28;2.17;;;4.20;98.00;;;;;;4997811;28;20030;-69
2023/01/14 04:32:05;;;;;;;12.63;2.30;;;4.10;98.00;;;;;;5015342;28;20434;-68
2023/01/14 04:34:31;;;;;;;11.02;2.15;;;4.00;98.00;;;;;;5015444;28;20069;-68
2023/01/14 04:36:56;;;;;;;11.38;2.72;;;3.80;98.00;;;;;;5015259;28;20029;-68
2023/01/14 04:39:22;;;;;;;9.75;2.28;;;3.60;98.00;;;;;;5015760;28;20324;-68
2023/01/14 04:44:33;;;;;;;12.98;2.08;;;3.40;98.00;;;;;;5015036;28;20033;-67
2023/01/14 04:46:58;;;;;;;13.63;4.55;;;3.40;98.00;;;;;;5013986;28;20337;-68
2023/01/14 04:49:24;;;;;;;122.82;53.35;;;3.70;98.00;;;;;;5015205;28;20113;-68
2023/01/14 04:51:49;;;;;;;24.52;7.72;;;3.80;98.00;;;;;;5012913;28;20053;-67
2023/01/14 04:54:15;;;;;;;11.55;2.58;;;4.00;98.00;;;;;;5016302;28;20374;-68
2023/01/14 04:56:40;;;;;;;14.73;4.22;;;4.10;98.00;;;;;;5015083;28;20461;-68
2023/01/14 04:59:06;;;;;;;18.27;4.15;;;4.20;98.00;;;;;;5013529;28;20022;-68
2023/01/14 05:01:31;;;;;;;15.52;3.75;;;4.20;98.00;;;;;;5014813;28;20044;-68
2023/01/14 05:04:00;;;;;;;33.67;12.48;;;4.30;98.00;;;;;;5012811;28;20018;-69
2023/01/14 05:06:28;;;;;;;36.25;13.32;;;4.20;98.00;;;;;;5018506;28;20096;-68
2023/01/14 05:08:53;;;;;;;13.98;3.40;;;4.10;98.00;;;;;;5014519;28;20022;-67
2023/01/14 05:11:19;;;;;;;12.82;2.95;;;3.90;98.00;;;;;;5006438;28;20054;-68
2023/01/14 05:13:44;;;;;;;10.32;2.05;;;3.90;98.00;;;;;;5017142;28;20164;-68
2023/01/14 05:16:10;;;;;;;45.60;15.15;;;3.80;98.00;;;;;;5018118;28;20101;-68
2023/01/14 05:18:36;;;;;;;16.05;5.28;;;3.70;98.00;;;;;;5017353;28;20451;-68
2023/01/14 05:21:01;;;;;;;12.38;2.70;;;3.70;98.00;;;;;;5016243;28;20049;-68
2023/01/14 05:23:27;;;;;;;9.80;2.22;;;3.60;98.00;;;;;;5016294;28;20034;-68
2023/01/14 05:25:52;;;;;;;12.20;2.03;;;3.60;98.00;;;;;;5017015;28;20030;-67
2023/01/14 05:28:19;;;;;;;32.20;15.00;;;3.80;98.00;;;;;;5000909;28;20065;-68
2023/01/14 05:30:45;;;;;;;10.40;2.13;;;3.80;98.00;;;;;;4988075;28;20026;-68
2023/01/14 05:33:11;;;;;;;10.45;2.17;;;3.80;98.00;;;;;;5000682;28;20030;-68
2023/01/14 05:35:37;;;;;;;8.18;2.33;;;3.70;98.00;;;;;;4999491;28;20038;-68
2023/01/14 05:38:04;;;;;;;12.75;2.22;;;3.60;98.00;;;;;;5004377;28;20026;-68
2023/01/14 05:40:33;;;;;;;13.35;2.85;;;3.40;98.00;;;;;;5008013;28;20048;-68
2023/01/14 05:45:51;;;;;;;15.02;2.28;;;3.30;98.00;;;;;;5014776;28;20253;-68
2023/01/14 05:48:19;;;;;;;12.15;2.40;;;3.30;98.00;;;;;;4999349;28;20037;-68
2023/01/14 05:50:48;;;;;;;10.80;2.60;;;3.30;98.00;;;;;;5019628;28;20022;-67
2023/01/14 05:53:13;;;;;;;14.82;3.53;;;3.40;98.00;;;;;;5013849;28;20060;-68
2023/01/14 05:55:39;;;;;;;15.27;3.92;;;3.40;98.00;;;;;;5013153;28;20061;-67
2023/01/14 05:58:06;;;;;;;18.23;3.33;;;3.50;98.00;;;;;;5007998;28;20041;-67
2023/01/14 06:06:30;;;;;;;15.55;4.10;;;3.60;98.00;;;;;;4956321;28;20030;-69
2023/01/14 06:08:59;;;;;;;14.40;3.03;;;3.60;98.00;;;;;;5016874;28;20105;-68
2023/01/14 06:11:26;;;;;;;13.52;2.80;;;3.60;98.00;;;;;;5002026;28;20052;-68
2023/01/14 06:13:56;;;;;;;17.33;3.40;;;3.60;98.00;;;;;;5015325;28;20038;-68
2023/01/14 06:16:27;;;;;;;14.40;2.60;;;3.60;98.00;;;;;;5013744;28;20137;-68
2023/01/14 06:18:53;;;;;;;9.38;2.45;;;3.70;98.00;;;;;;5018000;28;20026;-68
2023/01/14 06:21:21;;;;;;;15.65;2.70;;;3.80;98.00;;;;;;5004594;28;20022;-67
2023/01/14 06:23:47;;;;;;;15.93;3.42;;;3.80;98.00;;;;;;5015688;28;20383;-68
2023/01/14 06:26:16;;;;;;;15.15;2.53;;;3.70;98.00;;;;;;5019440;28;20080;-68
2023/01/14 06:28:42;;;;;;;13.27;2.72;;;3.70;98.00;;;;;;5017215;28;20423;-67
2023/01/14 06:31:16;;;;;;;15.70;2.65;;;3.70;98.00;;;;;;5015477;28;20331;-66
2023/01/14 06:33:42;;;;;;;11.23;3.03;;;3.80;98.00;;;;;;5015923;28;20052;-66
2023/01/14 06:36:10;;;;;;;13.15;2.83;;;3.90;98.00;;;;;;5011310;28;20030;-66
2023/01/14 06:38:36;;;;;;;17.38;3.05;;;4.00;98.00;;;;;;4998102;28;20030;-65
2023/01/14 06:41:03;;;;;;;11.77;2.85;;;4.20;98.00;;;;;;5024384;28;20108;-68
2023/01/14 06:43:29;;;;;;;14.23;3.63;;;4.30;98.00;;;;;;5016081;28;20033;-67
2023/01/14 06:45:56;;;;;;;10.05;2.38;;;4.50;98.00;;;;;;5017745;28;20415;-69
2023/01/14 06:48:25;;;;;;;10.63;2.53;;;4.60;98.00;;;;;;5017552;28;20160;-68
2023/01/14 06:50:51;;;;;;;12.07;2.72;;;4.70;98.00;;;;;;5017576;28;20038;-68
2023/01/14 06:53:18;;;;;;;14.63;3.33;;;4.80;98.00;;;;;;5015690;28;20022;-68
2023/01/14 06:55:43;;;;;;;15.88;3.38;;;4.70;98.00;;;;;;5018106;28;20029;-68
2023/01/14 06:58:09;;;;;;;11.45;2.33;;;4.70;98.00;;;;;;5017000;28;20327;-68
2023/01/14 07:00:35;;;;;;;9.27;2.05;;;4.70;98.00;;;;;;5023356;28;20013;-67
2023/01/14 07:03:01;;;;;;;13.63;2.45;;;4.90;98.00;;;;;;5016897;28;20022;-68
2023/01/14 07:05:27;;;;;;;11.90;2.45;;;5.10;98.00;;;;;;5020044;28;20028;-68
2023/01/14 07:07:52;;;;;;;10.73;1.85;;;5.30;98.00;;;;;;5016208;28;20088;-68
2023/01/14 07:10:18;;;;;;;5.30;1.98;;;5.30;98.00;;;;;;5017420;28;20431;-68
2023/01/14 07:12:51;;;;;;;9.02;2.20;;;5.40;98.00;;;;;;5017732;28;20101;-68
2023/01/14 07:15:21;;;;;;;12.55;2.47;;;5.50;98.00;;;;;;5017346;28;20037;-68
2023/01/14 07:17:48;;;;;;;9.48;1.98;;;5.50;98.00;;;;;;5017457;28;20080;-68
2023/01/14 07:20:15;;;;;;;10.07;2.25;;;5.50;98.00;;;;;;5016607;28;20048;-68
2023/01/14 07:22:40;;;;;;;9.73;1.83;;;5.50;98.00;;;;;;5015211;28;20022;-68
2023/01/14 07:25:06;;;;;;;8.20;1.90;;;5.50;98.00;;;;;;5016242;28;20026;-67
2023/01/14 07:27:32;;;;;;;13.48;2.15;;;5.50;98.00;;;;;;5017450;28;20033;-68
2023/01/14 07:30:02;;;;;;;6.15;1.70;;;5.50;98.00;;;;;;5017076;28;20029;-67
2023/01/14 07:32:28;;;;;;;7.38;1.70;;;5.50;98.00;;;;;;5020204;28;20109;-69
2023/01/14 07:34:53;;;;;;;8.10;1.48;;;5.50;98.00;;;;;;5016975;28;20113;-68
2023/01/14 07:37:19;;;;;;;7.68;1.88;;;5.50;98.00;;;;;;5015400;28;20040;-67
2023/01/14 07:39:45;;;;;;;7.22;1.80;;;5.60;98.00;;;;;;5016656;28;20423;-68
2023/01/14 07:42:10;;;;;;;11.40;2.47;;;5.60;98.00;;;;;;4989620;28;20026;-68
2023/01/14 07:44:36;;;;;;;8.75;1.95;;;5.60;98.00;;;;;;5011337;28;20022;-68
2023/01/14 07:47:02;;;;;;;13.52;2.47;;;5.60;98.00;;;;;;5015189;28;20029;-67
2023/01/14 07:49:27;;;;;;;7.93;2.00;;;5.60;98.00;;;;;;5011176;28;20018;-68
2023/01/14 07:51:53;;;;;;;10.88;3.10;;;5.60;98.00;;;;;;4997474;28;20026;-67
2023/01/14 07:54:19;;;;;;;10.18;2.63;;;5.60;98.00;;;;;;5013733;28;20033;-67
2023/01/14 07:56:48;;;;;;;9.10;2.13;;;5.60;98.00;;;;;;5014801;28;20034;-69
2023/01/14 07:59:13;;;;;;;9.18;2.13;;;5.70;98.00;;;;;;5013301;28;20033;-69
2023/01/14 08:01:39;;;;;;;10.43;1.85;;;5.70;98.00;;;;;;5016525;28;20033;-68
2023/01/14 08:04:05;;;;;;;6.65;1.98;;;5.70;98.00;;;;;;5018974;28;20022;-67
2023/01/14 08:06:32;;;;;;;9.15;2.00;;;5.70;98.00;;;;;;5014726;28;20025;-68
2023/01/14 08:09:00;;;;;;;8.30;1.92;;;5.80;98.00;;;;;;5015842;28;20415;-68
2023/01/14 08:11:25;;;;;;;10.27;2.22;;;5.80;98.00;;;;;;5015675;28;20339;-68
2023/01/14 08:13:51;;;;;;;8.50;2.38;;;5.80;98.00;;;;;;5019410;28;20030;-67
2023/01/14 08:16:16;;;;;;;8.20;1.63;;;5.90;98.00;;;;;;5014968;28;20036;-69
2023/01/14 08:18:42;;;;;;;9.60;1.80;;;5.90;98.00;;;;;;5021016;28;20052;-68
2023/01/14 08:21:13;;;;;;;4.63;1.50;;;5.90;98.00;;;;;;5021413;28;20033;-67
2023/01/14 08:23:40;;;;;;;7.35;1.60;;;6.00;98.00;;;;;;5015518;28;20453;-66
2023/01/14 08:26:08;;;;;;;7.60;2.33;;;6.00;98.00;;;;;;5015768;28;20101;-67
2023/01/14 08:28:35;;;;;;;8.43;1.80;;;6.10;98.00;;;;;;4999401;28;20030;-68
2023/01/14 08:31:11;;;;;;;8.00;2.00;;;6.20;98.00;;;;;;5013506;28;20066;-69
2023/01/14 08:33:37;;;;;;;5.55;1.58;;;6.30;98.00;;;;;;4995198;28;20415;-69
2023/01/14 08:36:06;;;;;;;7.43;1.40;;;6.40;98.00;;;;;;5012542;28;20038;-69
2023/01/14 08:38:36;;;;;;;5.43;1.50;;;6.50;98.00;;;;;;5013641;28;20426;-68
2023/01/14 08:41:07;;;;;;;6.95;1.40;;;6.50;98.00;;;;;;5013107;28;20403;-68
2023/01/14 08:43:33;;;;;;;5.75;1.58;;;6.40;97.80;;;;;;5013750;28;20044;-69
2023/01/14 08:46:00;;;;;;;8.57;1.75;;;6.40;97.90;;;;;;4999919;28;20411;-68
2023/01/14 08:48:25;;;;;;;8.10;1.70;;;6.40;98.00;;;;;;4994044;28;20034;-67
2023/01/14 08:50:51;;;;;;;9.85;2.65;;;6.40;98.00;;;;;;4994756;28;20084;-68
2023/01/14 08:53:16;;;;;;;6.60;1.60;;;6.50;97.80;;;;;;4993649;28;20135;-67
2023/01/14 08:55:42;;;;;;;6.50;1.52;;;6.50;97.60;;;;;;5006364;28;20644;-68
2023/01/14 08:58:08;;;;;;;7.45;1.95;;;6.50;97.80;;;;;;4988691;28;20795;-68
2023/01/14 09:00:34;;;;;;;8.27;1.80;;;6.50;97.60;;;;;;4991300;28;20026;-68
2023/01/14 09:03:00;;;;;;;9.15;1.67;;;6.60;97.50;;;;;;4988063;28;20300;-68
2023/01/14 09:05:26;;;;;;;5.68;1.60;;;6.70;97.30;;;;;;4990873;28;20089;-68
2023/01/14 09:18:57;;;;;;;6.93;1.90;;;6.60;96.90;;;;;;5014850;28;20502;-67
2023/01/14 09:21:26;;;;;;;6.82;1.65;;;6.60;97.00;;;;;;5014134;28;20053;-67
2023/01/14 09:23:51;;;;;;;6.95;1.60;;;6.60;96.80;;;;;;4998006;28;20057;-67
2023/01/14 09:26:20;;;;;;;7.32;2.03;;;6.60;97.30;;;;;;5015221;28;20018;-68
2023/01/14 09:28:46;;;;;;;8.05;3.33;;;6.70;96.70;;;;;;5008205;28;20378;-66
2023/01/14 09:31:11;;;;;;;6.80;1.80;;;6.80;97.00;;;;;;5008864;28;20469;-66
2023/01/14 09:33:37;;;;;;;6.82;1.60;;;6.80;96.90;;;;;;5011070;28;20038;-68
2023/01/14 09:36:03;;;;;;;6.15;1.30;;;6.80;97.00;;;;;;4993079;28;20029;-68
2023/01/14 09:38:28;;;;;;;5.55;1.42;;;6.90;96.70;;;;;;5008613;28;20033;-68
2023/01/14 09:40:54;;;;;;;8.43;2.35;;;7.00;97.10;;;;;;5006364;28;20102;-69
2023/01/14 09:43:21;;;;;;;5.35;1.70;;;7.10;96.40;;;;;;5010603;28;20068;-68
2023/01/14 09:45:58;;;;;;;5.65;1.38;;;7.20;96.50;;;;;;5014761;28;20026;-68
2023/01/14 09:48:26;;;;;;;6.75;1.40;;;7.30;96.00;;;;;;5008350;28;20453;-68
2023/01/14 09:51:20;;;;;;;5.78;1.70;;;7.40;95.60;;;;;;5007857;28;20038;-68
2023/01/14 09:54:02;;;;;;;7.15;1.70;;;7.50;95.50;;;;;;4998734;28;20123;-68
2023/01/14 09:56:37;;;;;;;8.30;2.67;;;7.70;95.90;;;;;;5005659;28;20030;-68
2023/01/14 09:59:10;;;;;;;4.00;1.52;;;8.10;94.50;;;;;;5014806;28;20181;-68
2023/01/14 10:01:58;;;;;;;5.55;1.77;;;8.30;93.60;;;;;;5018636;28;20316;-68
2023/01/14 10:04:42;;;;;;;5.57;2.13;;;8.40;93.10;;;;;;5023782;28;20407;-68
2023/01/14 10:07:11;;;;;;;3.80;1.27;;;8.50;92.80;;;;;;5017397;28;20022;-68
2023/01/14 10:09:47;;;;;;;3.60;1.48;;;8.30;92.50;;;;;;5018648;28;20042;-68
2023/01/14 10:12:25;;;;;;;2.53;1.00;;;8.20;93.00;;;;;;5018568;28;20033;-68
2023/01/14 10:15:18;;;;;;;4.05;1.13;;;8.20;93.00;;;;;;5018428;28;20354;-68
2023/01/14 10:17:48;;;;;;;3.30;1.10;;;8.30;93.10;;;;;;5013692;28;20038;-68
2023/01/14 10:20:21;;;;;;;5.05;1.25;;;8.20;93.00;;;;;;5018007;28;20033;-68
2023/01/14 10:22:57;;;;;;;4.30;1.00;;;8.20;92.90;;;;;;5016770;28;20022;-68
2023/01/14 10:25:23;;;;;;;8.18;1.48;;;8.10;93.00;;;;;;5015878;28;20022;-68
2023/01/14 10:27:53;;;;;;;3.90;1.00;;;8.00;93.50;;;;;;5017889;28;20041;-68
2023/01/14 10:30:38;;;;;;;5.65;1.27;;;8.10;93.50;;;;;;5014685;28;20061;-68
2023/01/14 10:33:06;;;;;;;10.43;1.60;;;8.10;93.20;;;;;;5017571;28;20119;-67
2023/01/14 10:35:35;;;;;;;2.78;1.17;;;8.10;93.00;;;;;;5018067;28;20065;-67
2023/01/14 10:38:01;;;;;;;3.00;1.17;;;8.10;93.10;;;;;;5017258;28;20023;-68
2023/01/14 10:40:28;;;;;;;2.28;1.00;;;8.30;93.40;;;;;;5018514;28;20070;-68
2023/01/14 10:42:56;;;;;;;2.47;1.00;;;8.40;92.10;;;;;;5018445;28;20029;-67
2023/01/14 10:45:21;;;;;;;3.13;1.13;;;8.30;92.50;;;;;;5016898;28;20413;-68
2023/01/14 10:47:51;;;;;;;3.80;1.45;;;8.30;92.60;;;;;;5018400;28;20038;-68
2023/01/14 10:50:24;;;;;;;3.38;1.10;;;8.40;93.40;;;;;;5018265;28;20033;-68
2023/01/14 10:52:52;;;;;;;36.15;5.03;;;8.50;92.00;;;;;;5017049;28;20520;-68
2023/01/14 10:55:28;;;;;;;3.47;1.38;;;8.40;91.70;;;;;;5018183;28;20084;-68
2023/01/14 10:58:06;;;;;;;5.63;1.75;;;8.30;91.80;;;;;;5017840;28;20026;-68
2023/01/14 11:00:40;;;;;;;4.35;1.13;;;8.40;92.70;;;;;;5017252;28;20040;-68
2023/01/14 11:03:29;;;;;;;4.80;1.13;;;8.40;92.10;;;;;;5017888;28;20033;-68
2023/01/14 11:06:08;;;;;;;3.88;1.30;;;8.40;92.40;;;;;;5017592;28;20100;-68
2023/01/14 11:08:40;;;;;;;4.20;1.08;;;8.30;92.50;;;;;;5017709;28;20415;-68
2023/01/14 11:11:16;;;;;;;5.85;1.95;;;8.30;92.40;;;;;;5017562;28;20391;-68
2023/01/14 11:13:50;;;;;;;4.25;1.23;;;8.30;91.90;;;;;;5017661;28;20033;-68
2023/01/14 11:16:24;;;;;;;5.15;1.10;;;8.40;92.10;;;;;;5014274;28;20034;-68
2023/01/14 11:18:58;;;;;;;;;;;8.40;91.80;;;;;;5010210;28;20054;-68
2023/01/14 11:21:28;;;;;;;4.28;1.20;;;8.50;91.50;;;;;;5016358;28;19948;-67
2023/01/14 11:23:59;;;;;;;3.88;1.20;;;8.40;91.70;;;;;;5016547;28;20029;-68
2023/01/14 11:26:36;;;;;;;4.32;1.30;;;8.30;91.00;;;;;;5016378;28;20030;-68
2023/01/14 11:29:15;;;;;;;3.75;1.15;;;8.30;91.80;;;;;;5016467;28;20030;-68
2023/01/14 11:31:43;;;;;;;4.80;1.30;;;8.30;91.60;;;;;;5016440;28;20037;-68
2023/01/14 11:34:39;;;;;;;4.68;1.15;;;8.20;91.90;;;;;;5016197;28;20022;-68
2023/01/14 11:37:10;;;;;;;4.38;1.30;;;8.10;92.00;;;;;;4980273;28;20038;-68
2023/01/14 11:39:38;;;;;;;4.97;2.03;;;8.10;92.30;;;;;;5014347;28;20033;-67
2023/01/14 11:42:40;;;;;;;6.22;1.35;;;8.20;92.30;;;;;;5017241;28;20022;-68
2023/01/14 11:45:11;;;;;;;4.80;1.38;;;8.20;91.70;;;;;;4974972;28;20034;-68
2023/01/14 11:47:54;;;;;;;4.55;1.50;;;8.10;91.70;;;;;;5005003;28;20038;-67
2023/01/14 11:50:27;;;;;;;6.40;1.65;;;8.10;91.80;;;;;;5022122;28;20044;-67
2023/01/14 11:53:06;;;;;;;6.20;1.27;;;8.00;91.70;;;;;;5013999;28;20026;-68
2023/01/14 11:55:36;;;;;;;5.18;1.77;;;8.10;91.40;;;;;;5015908;28;20327;-68
2023/01/14 11:58:03;;;;;;;6.03;1.65;;;8.10;91.50;;;;;;5009857;28;20084;-67
2023/01/14 12:00:30;;;;;;;6.40;1.35;;;8.20;91.40;;;;;;5014766;28;20041;-68
2023/01/14 12:03:01;;;;;;;3.75;1.42;;;8.20;90.80;;;;;;5014837;28;20033;-67
2023/01/14 12:05:28;;;;;;;6.93;1.70;;;8.10;90.40;;;;;;5016284;28;20028;-68
2023/01/14 12:08:01;;;;;;;5.47;1.70;;;8.20;90.90;;;;;;5014452;28;20027;-68
2023/01/14 12:10:33;;;;;;;4.93;2.30;;;8.20;89.80;;;;;;5016429;28;20064;-67
2023/01/14 12:19:31;;;;;;;6.10;1.65;;;8.30;88.00;;;;;;4997154;28;20053;-67
2023/01/14 12:22:15;;;;;;;5.75;1.67;;;8.30;89.00;;;;;;5008596;28;20022;-67
2023/01/14 12:25:02;;;;;;;3.60;1.23;;;8.30;87.90;;;;;;5026007;28;20029;-67
2023/01/14 12:27:43;;;;;;;4.97;1.30;;;8.30;87.80;;;;;;5016454;28;20025;-69
2023/01/14 12:30:09;;;;;;;5.32;1.40;;;8.30;86.70;;;;;;5014545;28;20030;-67
2023/01/14 12:32:36;;;;;;;5.45;1.40;;;8.40;86.50;;;;;;5015669;28;20072;-68
2023/01/14 12:35:03;;;;;;;6.10;1.70;;;8.40;86.70;;;;;;5021847;28;20021;-67
2023/01/14 12:37:41;;;;;;;4.28;1.30;;;8.40;86.80;;;;;;5013524;28;20037;-68
2023/01/14 12:46:12;;;;;;;4.82;1.30;;;8.60;84.10;;;;;;5013778;28;20084;-67
2023/01/14 12:48:39;;;;;;;4.57;1.30;;;8.60;85.30;;;;;;5014589;28;20033;-68
2023/01/14 12:51:29;;;;;;;4.72;1.30;;;8.60;84.10;;;;;;5013346;28;20025;-68
2023/01/14 12:53:59;;;;;;;3.30;1.30;;;8.50;84.80;;;;;;5014244;28;20452;-67
2023/01/14 12:56:27;;;;;;;4.45;1.38;;;8.50;85.30;;;;;;5015826;28;20076;-68
2023/01/14 12:58:59;;;;;;;3.10;1.30;;;8.60;84.00;;;;;;5015592;28;20029;-68
2023/01/14 13:01:29;;;;;;;20.58;11.77;;;8.70;82.10;;;;;;5015178;28;20343;-68
2023/01/14 13:03:59;;;;;;;3.80;1.48;;;8.80;83.50;;;;;;5015363;28;20014;-68
2023/01/14 13:06:38;;;;;;;3.03;1.30;;;8.80;82.80;;;;;;4997367;28;20022;-68
2023/01/14 13:09:07;;;;;;;3.20;1.20;;;8.80;82.60;;;;;;5016132;28;20083;-69
2023/01/14 13:11:45;;;;;;;3.45;1.40;;;8.90;81.20;;;;;;5015682;28;20050;-68
2023/01/14 13:14:22;;;;;;;2.78;1.00;;;9.10;80.00;;;;;;5015529;28;20065;-68
2023/01/14 13:16:48;;;;;;;7.05;2.10;;;9.20;80.60;;;;;;5014480;28;20026;-68
2023/01/14 13:19:49;;;;;;;3.05;1.08;;;9.30;78.20;;;;;;5015828;28;20022;-69
2023/01/14 13:22:37;;;;;;;3.35;1.38;;;9.40;77.90;;;;;;4992376;28;20378;-67
2023/01/14 13:25:08;;;;;;;4.05;1.50;;;9.50;78.00;;;;;;5011997;28;20084;-68
2023/01/14 13:27:39;;;;;;;6.18;1.00;;;9.50;76.70;;;;;;5017990;28;20037;-68
2023/01/14 13:30:19;;;;;;;4.05;1.40;;;9.60;77.10;;;;;;5026303;28;20029;-68
2023/01/14 13:33:00;;;;;;;4.07;1.45;;;9.70;77.90;;;;;;5019580;28;20148;-69
2023/01/14 13:35:31;;;;;;;9.80;1.52;;;9.80;76.10;;;;;;5003150;28;20049;-67
2023/01/14 13:38:00;;;;;;;3.85;1.75;;;9.80;77.20;;;;;;5000639;28;20363;-67
2023/01/14 13:40:31;;;;;;;4.85;1.45;;;9.70;78.20;;;;;;5018679;28;20101;-67
2023/01/14 13:43:04;;;;;;;4.18;1.42;;;9.70;78.20;;;;;;5030482;28;20021;-68
2023/01/14 13:45:33;;;;;;;4.50;1.13;;;9.80;76.40;;;;;;5018557;28;20087;-67
2023/01/14 13:48:10;;;;;;;3.03;1.02;;;9.90;75.90;;;;;;5017904;28;20091;-67